createdAt,value
2022-09-03T00:02:45.730Z,17.50
2022-09-03T00:05:40.506Z,17.50
2022-09-03T00:08:41.867Z,17.50
2022-09-03T00:11:35.912Z,17.60
2022-09-03T00:14:16.403Z,17.60
2022-09-03T00:17:09.533Z,17.60
2022-09-03T00:19:44.814Z,17.60
2022-09-03T00:22:30.899Z,17.60
2022-09-03T00:25:05.753Z,17.70
2022-09-03T00:27:42.001Z,17.70
2022-09-03T00:30:16.991Z,17.80
2022-09-03T00:32:54.977Z,17.80
2022-09-03T00:35:40.127Z,17.80
2022-09-03T00:38:11.672Z,17.90
2022-09-03T00:41:04.156Z,17.80
2022-09-03T00:43:37.367Z,17.90
2022-09-03T00:46:30.855Z,17.80
2022-09-03T00:49:09.789Z,17.90
2022-09-03T00:51:50.100Z,17.90
2022-09-03T00:54:44.167Z,17.90
2022-09-03T00:57:49.470Z,17.90
2022-09-03T01:00:24.501Z,17.90
2022-09-03T01:03:10.453Z,17.90
2022-09-03T01:06:02.110Z,18.00
2022-09-03T01:08:56.312Z,18.00
2022-09-03T01:11:32.495Z,18.00
2022-09-03T01:14:36.285Z,18.00
2022-09-03T01:17:30.022Z,18.00
2022-09-03T01:20:06.132Z,18.00
2022-09-03T01:23:24.863Z,18.00
2022-09-03T01:26:13.494Z,18.10
2022-09-03T01:28:56.467Z,18.10
2022-09-03T01:31:44.808Z,18.10
2022-09-03T01:34:41.876Z,18.10
2022-09-03T01:37:30.523Z,18.20
2022-09-03T01:40:17.816Z,18.20
2022-09-03T01:43:09.215Z,18.20
2022-09-03T01:46:04.427Z,18.20
2022-09-03T01:49:01.950Z,18.20
2022-09-03T01:51:34.168Z,18.20
2022-09-03T01:54:27.752Z,18.30
2022-09-03T01:57:35.422Z,18.30
2022-09-03T02:00:14.368Z,18.30
2022-09-03T02:02:50.430Z,18.30
2022-09-03T02:05:26.519Z,18.40
2022-09-03T02:08:06.999Z,18.40
2022-09-03T02:10:51.136Z,18.40
2022-09-03T02:13:24.106Z,18.40
2022-09-03T02:15:58.555Z,18.40
2022-09-03T02:18:47.795Z,18.40
2022-09-03T02:21:21.857Z,18.50
2022-09-03T02:23:52.587Z,18.50
2022-09-03T02:26:26.071Z,18.50
2022-09-03T02:28:58.061Z,18.60
2022-09-03T02:31:29.954Z,18.50
2022-09-03T02:34:00.992Z,18.60
2022-09-03T02:36:40.456Z,18.60
2022-09-03T02:39:10.724Z,18.70
2022-09-03T02:41:43.154Z,18.70
2022-09-03T02:44:33.275Z,18.70
2022-09-03T02:47:10.292Z,18.70
2022-09-03T02:49:40.619Z,18.70
2022-09-03T02:52:14.105Z,18.80
2022-09-03T02:54:46.789Z,18.80
2022-09-03T02:57:27.433Z,18.80
2022-09-03T02:59:57.968Z,18.80
2022-09-03T03:02:28.539Z,18.90
2022-09-03T03:04:58.739Z,18.90
2022-09-03T03:07:30.258Z,18.90
2022-09-03T03:10:00.739Z,18.90
2022-09-03T03:12:31.690Z,19.00
2022-09-03T03:15:02.236Z,19.00
2022-09-03T03:17:32.902Z,19.00
2022-09-03T03:20:03.332Z,19.00
2022-09-03T03:22:34.031Z,19.00
2022-09-03T03:25:04.716Z,19.10
2022-09-03T03:27:35.037Z,19.10
2022-09-03T03:30:05.375Z,19.10
2022-09-03T03:32:35.624Z,19.10
2022-09-03T03:35:06.895Z,19.10
2022-09-03T03:37:37.503Z,19.20
2022-09-03T03:40:09.192Z,19.20
2022-09-03T03:42:39.654Z,19.20
2022-09-03T03:45:13.278Z,19.20
2022-09-03T03:47:43.592Z,19.30
2022-09-03T03:50:13.911Z,19.30
2022-09-03T03:52:44.476Z,19.30
2022-09-03T03:55:15.872Z,19.30
2022-09-03T03:57:46.358Z,19.40
2022-09-03T04:00:17.489Z,19.40
2022-09-03T04:02:49.094Z,19.40
2022-09-03T04:05:23.163Z,19.40
2022-09-03T04:07:54.432Z,19.50
2022-09-03T04:10:24.974Z,19.50
2022-09-03T04:12:58.086Z,19.50
2022-09-03T04:15:28.314Z,19.50
2022-09-03T04:17:58.734Z,19.50
2022-09-03T04:20:29.301Z,19.60
2022-09-03T04:23:03.745Z,19.50
2022-09-03T04:25:34.531Z,19.60
2022-09-03T04:28:06.364Z,19.60
2022-09-03T04:30:36.752Z,19.60
2022-09-03T04:33:07.686Z,19.60
2022-09-03T04:35:46.609Z,19.60
2022-09-03T04:38:28.110Z,19.70
2022-09-03T04:40:58.232Z,19.70
2022-09-03T04:43:29.160Z,19.70
2022-09-03T04:46:04.523Z,19.70
2022-09-03T04:48:35.821Z,19.70
2022-09-03T04:51:15.070Z,19.80
2022-09-03T04:53:50.667Z,19.80
2022-09-03T04:56:22.326Z,19.80
2022-09-03T04:58:56.887Z,19.80
2022-09-03T05:01:29.409Z,19.80
2022-09-03T05:04:00.752Z,19.80
2022-09-03T05:06:33.114Z,19.80
2022-09-03T05:09:04.329Z,19.80
2022-09-03T05:11:34.545Z,19.80
2022-09-03T05:14:05.425Z,19.80
2022-09-03T05:16:35.827Z,19.80
2022-09-03T05:19:09.806Z,19.80
2022-09-03T05:21:41.472Z,19.90
2022-09-03T05:24:13.242Z,19.80
2022-09-03T05:26:43.628Z,19.90
2022-09-03T05:29:14.049Z,19.90
2022-09-03T05:31:44.900Z,19.90
2022-09-03T05:34:16.327Z,19.90
2022-09-03T05:36:51.524Z,19.90
2022-09-03T05:39:21.773Z,19.90
2022-09-03T05:41:53.694Z,19.90
2022-09-03T05:44:24.920Z,19.90
2022-09-03T05:46:55.245Z,19.90
2022-09-03T05:49:25.469Z,19.90
2022-09-03T05:51:55.737Z,19.90
2022-09-03T05:54:26.037Z,19.90
2022-09-03T05:56:56.573Z,19.90
2022-09-03T05:59:26.729Z,19.90
2022-09-03T06:02:00.096Z,19.90
2022-09-03T06:04:30.789Z,19.90
2022-09-03T06:07:01.133Z,19.90
2022-09-03T06:09:31.371Z,19.90
2022-09-03T06:12:03.801Z,20.00
2022-09-03T06:14:34.828Z,19.90
2022-09-03T06:17:05.157Z,20.00
2022-09-03T06:19:35.500Z,20.00
2022-09-03T06:22:05.756Z,20.00
2022-09-03T06:24:35.999Z,20.00
2022-09-03T06:27:06.361Z,20.00
2022-09-03T06:29:37.336Z,20.00
2022-09-03T06:32:07.823Z,20.00
2022-09-03T06:34:38.066Z,20.10
2022-09-03T06:37:08.366Z,20.00
2022-09-03T06:39:38.649Z,20.10
2022-09-03T06:42:09.408Z,20.10
2022-09-03T06:44:39.589Z,20.00
2022-09-03T06:47:09.833Z,20.00
2022-09-03T06:49:40.433Z,20.00
2022-09-03T06:52:11.351Z,20.10
2022-09-03T06:54:42.411Z,20.00
2022-09-03T06:57:12.644Z,20.00
2022-09-03T06:59:42.786Z,20.00
2022-09-03T07:02:13.803Z,20.00
2022-09-03T07:04:44.063Z,20.00
2022-09-03T07:07:15.688Z,19.90
2022-09-03T07:09:48.393Z,20.00
2022-09-03T07:12:20.363Z,19.90
2022-09-03T07:14:51.124Z,19.90
2022-09-03T07:17:21.638Z,19.90
2022-09-03T07:19:51.836Z,19.90
2022-09-03T07:22:21.949Z,19.90
2022-09-03T07:25:01.456Z,20.00
2022-09-03T07:27:31.984Z,19.90
2022-09-03T07:30:02.141Z,19.90
2022-09-03T07:32:32.386Z,19.90
2022-09-03T07:35:02.569Z,19.90
2022-09-03T07:37:32.760Z,19.90
2022-09-03T07:40:03.653Z,19.90
2022-09-03T07:42:34.250Z,19.90
2022-09-03T07:45:07.466Z,19.90
2022-09-03T07:47:38.339Z,19.90
2022-09-03T07:50:09.001Z,19.90
2022-09-03T07:52:39.839Z,19.90
2022-09-03T07:55:11.230Z,19.90
2022-09-03T07:57:41.542Z,19.90
2022-09-03T08:00:14.622Z,19.90
2022-09-03T08:02:46.434Z,19.90
2022-09-03T08:05:16.873Z,19.90
2022-09-03T08:07:47.064Z,19.90
2022-09-03T08:10:18.257Z,19.90
2022-09-03T08:12:48.464Z,19.90
2022-09-03T08:15:18.731Z,19.90
2022-09-03T08:17:49.004Z,19.90
2022-09-03T08:20:20.079Z,19.90
2022-09-03T08:22:50.552Z,19.90
2022-09-03T08:25:20.707Z,19.90
2022-09-03T08:27:50.969Z,20.00
2022-09-03T08:30:23.044Z,20.00
2022-09-03T08:32:53.645Z,19.90
2022-09-03T08:35:24.191Z,20.00
2022-09-03T08:37:56.987Z,20.00
2022-09-03T08:40:27.622Z,20.00
2022-09-03T08:43:26.902Z,20.00
2022-09-03T08:45:58.230Z,20.00
2022-09-03T08:48:30.215Z,20.00
2022-09-03T08:51:05.518Z,20.00
2022-09-03T08:53:51.654Z,20.00
2022-09-03T08:56:29.651Z,20.00
2022-09-03T08:59:00.405Z,20.00
2022-09-03T09:02:11.871Z,20.00
2022-09-03T09:05:23.983Z,20.10
2022-09-03T09:08:29.623Z,20.10
2022-09-03T09:11:19.136Z,20.00
2022-09-03T09:14:07.858Z,20.10
2022-09-03T09:17:01.012Z,20.10
2022-09-03T09:19:54.482Z,20.10
2022-09-03T09:22:35.477Z,20.10
2022-09-03T09:25:17.551Z,20.10
2022-09-03T09:28:27.302Z,20.10
2022-09-03T09:30:59.682Z,20.10
2022-09-03T09:33:32.906Z,20.10
2022-09-03T09:36:10.335Z,20.10
2022-09-03T09:38:41.971Z,20.10
2022-09-03T09:41:20.288Z,20.10
2022-09-03T09:44:01.613Z,20.00
2022-09-03T09:46:43.886Z,20.00
2022-09-03T09:49:37.380Z,20.00
2022-09-03T09:52:16.746Z,20.00
2022-09-03T09:54:48.006Z,20.00
2022-09-03T09:57:24.100Z,19.90
2022-09-03T10:00:10.713Z,20.00
2022-09-03T10:02:43.975Z,20.00
2022-09-03T10:05:22.053Z,19.90
2022-09-03T10:08:25.763Z,19.90
2022-09-03T10:10:56.065Z,19.90
2022-09-03T10:13:38.201Z,19.90
2022-09-03T10:16:31.647Z,19.90
2022-09-03T10:19:01.865Z,19.90
2022-09-03T10:22:05.726Z,19.90
2022-09-03T10:25:05.585Z,19.90
2022-09-03T10:27:36.006Z,19.80
2022-09-03T10:30:06.819Z,19.80
2022-09-03T10:32:55.161Z,19.80
2022-09-03T10:35:37.264Z,19.80
2022-09-03T10:38:13.766Z,19.80
2022-09-03T10:41:11.273Z,19.80
2022-09-03T10:43:49.794Z,19.80
2022-09-03T10:46:31.693Z,19.70
2022-09-03T10:49:08.933Z,19.70
2022-09-03T10:51:49.692Z,19.70
2022-09-03T10:54:42.765Z,19.70
2022-09-03T10:57:50.118Z,19.70
2022-09-03T11:00:21.318Z,19.70
2022-09-03T11:02:57.813Z,19.70
2022-09-03T11:05:47.015Z,19.70
2022-09-03T11:08:52.717Z,19.70
2022-09-03T11:11:28.322Z,19.70
2022-09-03T11:14:13.256Z,19.60
2022-09-03T11:16:54.951Z,19.70
2022-09-03T11:19:36.865Z,19.70
2022-09-03T11:22:09.815Z,19.70
2022-09-03T11:24:42.691Z,19.60
2022-09-03T11:27:46.132Z,19.60
2022-09-03T11:30:30.717Z,19.60
2022-09-03T11:33:11.133Z,19.60
2022-09-03T11:35:45.685Z,19.60
2022-09-03T11:38:26.787Z,19.60
2022-09-03T11:41:27.893Z,19.60
2022-09-03T11:44:01.234Z,19.60
2022-09-03T11:46:35.427Z,19.60
2022-09-03T11:49:27.686Z,19.50
2022-09-03T11:52:10.989Z,19.60
2022-09-03T11:54:49.239Z,19.60
2022-09-03T11:57:30.927Z,19.50
2022-09-03T12:00:14.793Z,19.50
2022-09-03T12:02:49.629Z,19.50
2022-09-03T12:05:50.096Z,19.50
2022-09-03T12:09:12.256Z,19.40
2022-09-03T12:12:15.608Z,19.40
2022-09-03T12:15:09.976Z,19.30
2022-09-03T12:18:21.273Z,19.30
2022-09-03T12:21:03.161Z,19.30
2022-09-03T12:23:36.737Z,19.30
2022-09-03T12:26:16.860Z,19.20
2022-09-03T12:28:50.364Z,19.20
2022-09-03T12:31:50.595Z,19.20
2022-09-03T12:34:23.014Z,19.20
2022-09-03T12:36:55.806Z,19.10
2022-09-03T12:42:29.664Z,19.20
2022-09-03T12:45:09.861Z,19.10
2022-09-03T12:47:44.951Z,19.10
2022-09-03T12:50:19.994Z,19.10
2022-09-03T12:52:53.380Z,19.10
2022-09-03T12:55:30.513Z,19.00
2022-09-03T12:58:37.282Z,19.00
2022-09-03T13:01:13.916Z,19.00
2022-09-03T13:03:59.554Z,18.90
2022-09-03T13:06:43.726Z,18.90
2022-09-03T13:09:15.582Z,18.90
2022-09-03T13:11:46.432Z,18.90
2022-09-03T13:14:20.194Z,18.90
2022-09-03T13:16:53.356Z,18.90
2022-09-03T13:19:44.652Z,18.90
2022-09-03T13:22:20.458Z,18.90
2022-09-03T13:25:13.932Z,18.80
2022-09-03T13:27:55.769Z,18.80
2022-09-03T13:30:34.100Z,18.80
2022-09-03T13:33:23.899Z,18.80
2022-09-03T13:36:07.252Z,18.80
2022-09-03T13:38:49.404Z,18.70
2022-09-03T13:41:22.090Z,18.70
2022-09-03T13:44:07.341Z,18.70
2022-09-03T13:47:00.550Z,18.70
2022-09-03T13:49:57.899Z,18.70
2022-09-03T13:52:49.900Z,18.60
2022-09-03T13:55:28.244Z,18.60
2022-09-03T13:58:07.336Z,18.60
2022-09-03T14:01:02.835Z,18.50
2022-09-03T14:03:38.205Z,18.60
2022-09-03T14:06:23.545Z,18.50
2022-09-03T14:08:59.541Z,18.50
2022-09-03T14:11:34.734Z,18.50
2022-09-03T14:14:24.247Z,18.50
2022-09-03T14:17:16.667Z,18.50
2022-09-03T14:20:00.181Z,18.40
2022-09-03T14:22:48.147Z,18.40
2022-09-03T14:25:24.228Z,18.40
2022-09-03T14:27:57.441Z,18.40
2022-09-03T14:30:27.859Z,18.30
2022-09-03T14:33:10.109Z,18.30
2022-09-03T14:36:12.180Z,18.30
2022-09-03T14:38:48.289Z,18.30
2022-09-03T14:41:22.426Z,18.20
2022-09-03T14:44:20.863Z,18.20
2022-09-03T14:47:02.572Z,18.20
2022-09-03T14:50:06.976Z,18.20
2022-09-03T14:52:43.224Z,18.20
2022-09-03T14:56:04.243Z,18.10
2022-09-03T14:58:58.543Z,18.20
2022-09-03T15:01:39.933Z,18.10
2022-09-03T15:04:28.329Z,18.10
2022-09-03T15:07:10.166Z,18.10
2022-09-03T15:09:57.483Z,18.00
2022-09-03T15:12:43.095Z,18.00
2022-09-03T15:15:45.330Z,18.00
2022-09-03T15:18:33.553Z,18.00
2022-09-03T15:21:47.471Z,17.90
2022-09-03T15:24:47.955Z,18.00
2022-09-03T15:28:07.703Z,17.90
2022-09-03T15:30:46.251Z,17.90
2022-09-03T15:33:23.842Z,17.90
2022-09-03T15:35:57.704Z,17.90
2022-09-03T15:38:30.563Z,17.80
2022-09-03T15:41:10.051Z,17.80
2022-09-03T15:43:41.974Z,17.80
2022-09-03T15:46:40.219Z,17.80
2022-09-03T15:49:37.448Z,17.80
2022-09-03T15:52:32.523Z,17.80
2022-09-03T15:55:27.633Z,17.80
2022-09-03T15:58:09.963Z,17.70
2022-09-03T16:01:03.689Z,17.70
2022-09-03T16:03:57.681Z,17.70
2022-09-03T16:07:03.057Z,17.70
2022-09-03T16:10:20.343Z,17.70
2022-09-03T16:13:25.105Z,17.60
2022-09-03T16:16:11.332Z,17.60
2022-09-03T16:18:56.898Z,17.60
2022-09-03T16:21:53.171Z,17.60
2022-09-03T16:24:43.543Z,17.50
2022-09-03T16:27:13.689Z,17.50
2022-09-03T16:29:43.909Z,17.50
2022-09-03T16:32:18.147Z,17.50
2022-09-03T16:35:06.042Z,17.50
2022-09-03T16:37:57.039Z,17.50
2022-09-03T16:41:08.389Z,17.40
2022-09-03T16:43:51.275Z,17.40
2022-09-03T16:46:47.286Z,17.40
2022-09-03T16:49:38.689Z,17.40
2022-09-03T16:52:50.362Z,17.40
2022-09-03T16:55:26.645Z,17.40
2022-09-03T16:58:17.793Z,17.30
2022-09-03T17:01:27.282Z,17.30
2022-09-03T17:04:15.465Z,17.30
2022-09-03T17:07:00.819Z,17.30
2022-09-03T17:09:56.526Z,17.20
2022-09-03T17:13:00.282Z,17.20
2022-09-03T17:15:34.882Z,17.20
2022-09-03T17:18:33.081Z,17.20
2022-09-03T17:21:47.978Z,17.20
2022-09-03T17:24:24.740Z,17.20
2022-09-03T17:27:09.940Z,17.10
2022-09-03T17:29:48.799Z,17.10
2022-09-03T17:32:38.275Z,17.10
2022-09-03T17:35:38.233Z,17.10
2022-09-03T17:38:46.587Z,17.10
2022-09-03T17:41:33.634Z,17.10
2022-09-03T17:44:20.297Z,17.00
2022-09-03T17:47:34.443Z,17.00
2022-09-03T17:50:36.644Z,17.00
2022-09-03T17:53:28.213Z,17.00
2022-09-03T17:56:04.807Z,17.00
2022-09-03T17:58:47.810Z,17.00
2022-09-03T18:01:29.002Z,16.90
2022-09-03T18:04:05.468Z,16.90
2022-09-03T18:06:47.652Z,16.90
2022-09-03T18:09:31.985Z,16.90
2022-09-03T18:12:19.417Z,16.90
2022-09-03T18:14:58.511Z,16.90
2022-09-03T18:17:37.244Z,16.90
2022-09-03T18:20:30.486Z,16.80
2022-09-03T18:23:46.188Z,16.80
2022-09-03T18:26:49.630Z,16.80
2022-09-03T18:30:04.051Z,16.80
2022-09-03T18:32:52.014Z,16.80
2022-09-03T18:35:39.935Z,16.70
2022-09-03T18:38:28.104Z,16.70
2022-09-03T18:41:48.455Z,16.70
2022-09-03T18:44:54.766Z,16.70
2022-09-03T18:48:20.520Z,16.70
2022-09-03T18:51:19.586Z,16.60
2022-09-03T18:54:44.997Z,16.60
2022-09-03T18:57:57.443Z,16.60
2022-09-03T19:00:50.576Z,16.60
2022-09-03T19:04:10.389Z,16.50
2022-09-03T19:07:03.471Z,16.50
2022-09-03T19:10:08.148Z,16.50
2022-09-03T19:13:11.402Z,16.50
2022-09-03T19:16:14.960Z,16.50
2022-09-03T19:19:14.125Z,16.50
2022-09-03T19:22:16.980Z,16.50
2022-09-03T19:25:06.070Z,16.40
2022-09-03T19:28:11.808Z,16.40
2022-09-03T19:31:29.526Z,16.40
2022-09-03T19:34:44.918Z,16.40
2022-09-03T19:37:57.534Z,16.40
2022-09-03T19:41:17.071Z,16.30
2022-09-03T19:44:14.297Z,16.30
2022-09-03T19:47:19.466Z,16.30
2022-09-03T19:50:10.376Z,16.30
2022-09-03T19:53:13.626Z,16.30
2022-09-03T19:56:20.377Z,16.30
2022-09-03T19:59:39.175Z,16.20
2022-09-03T20:02:27.323Z,16.20
2022-09-03T20:05:20.506Z,16.20
2022-09-03T20:08:11.610Z,16.20
2022-09-03T20:10:44.051Z,16.20
2022-09-03T20:13:17.386Z,16.20
2022-09-03T20:15:59.591Z,16.20
2022-09-03T20:18:59.546Z,16.20
2022-09-03T20:21:52.273Z,16.20
2022-09-03T20:24:30.344Z,16.10
2022-09-03T20:27:27.933Z,16.10
2022-09-03T20:30:35.578Z,16.10
2022-09-03T20:33:19.120Z,16.10
2022-09-03T20:36:31.621Z,16.10
2022-09-03T20:39:23.219Z,16.20
2022-09-03T20:42:14.369Z,16.30
2022-09-03T20:45:06.793Z,16.30
2022-09-03T20:48:01.122Z,16.40
2022-09-03T20:50:58.171Z,16.50
2022-09-03T20:53:51.226Z,16.60
2022-09-03T20:56:39.169Z,16.60
2022-09-03T20:59:39.566Z,16.60
2022-09-03T21:02:54.103Z,16.70
2022-09-03T21:05:42.331Z,16.70
2022-09-03T21:08:36.222Z,16.70
2022-09-03T21:11:49.645Z,16.70
2022-09-03T21:14:37.126Z,16.80
2022-09-03T21:17:19.673Z,16.80
2022-09-03T21:20:17.557Z,16.80
2022-09-03T21:23:19.041Z,16.80
2022-09-03T21:26:15.525Z,16.90
2022-09-03T21:29:10.229Z,16.90
2022-09-03T21:32:01.817Z,16.90
2022-09-03T21:34:47.038Z,16.90
2022-09-03T21:37:18.568Z,16.90
2022-09-03T21:39:58.617Z,16.90
2022-09-03T21:42:50.220Z,17.00
2022-09-03T21:45:38.888Z,17.00
2022-09-03T21:48:19.858Z,17.00
2022-09-03T21:51:03.062Z,17.00
2022-09-03T21:53:46.814Z,17.00
2022-09-03T21:56:23.837Z,17.00
2022-09-03T21:59:24.078Z,17.00
2022-09-03T22:02:26.008Z,17.00
2022-09-03T22:04:57.887Z,17.10
2022-09-03T22:08:04.598Z,17.00
2022-09-03T22:11:13.052Z,17.10
2022-09-03T22:13:52.930Z,17.10
2022-09-03T22:16:25.349Z,17.10
2022-09-03T22:18:57.334Z,17.10
2022-09-03T22:21:55.326Z,17.10
2022-09-03T22:24:37.507Z,17.10
2022-09-03T22:27:11.371Z,17.10
2022-09-03T22:30:08.506Z,17.20
2022-09-03T22:32:53.161Z,17.20
2022-09-03T22:35:35.262Z,17.20
2022-09-03T22:38:11.499Z,17.20
2022-09-03T22:40:53.137Z,17.20
2022-09-03T22:44:22.274Z,17.30
2022-09-03T22:47:13.215Z,17.30
2022-09-03T22:49:49.131Z,17.30
2022-09-03T22:52:40.149Z,17.30
2022-09-03T22:55:27.271Z,17.40
2022-09-03T22:58:28.895Z,17.40
2022-09-03T23:01:15.552Z,17.50
2022-09-03T23:04:13.683Z,17.50
2022-09-03T23:07:04.495Z,17.50
2022-09-03T23:09:40.704Z,17.50
2022-09-03T23:12:20.420Z,17.60
2022-09-03T23:14:55.470Z,17.60
2022-09-03T23:20:22.749Z,17.60
2022-09-03T23:23:11.764Z,17.60
2022-09-03T23:25:53.249Z,17.70
2022-09-03T23:28:40.030Z,17.70
2022-09-03T23:31:23.885Z,17.70
2022-09-03T23:33:58.951Z,17.70
2022-09-03T23:37:16.222Z,17.70
2022-09-03T23:40:10.810Z,17.70
2022-09-03T23:43:13.089Z,17.80
2022-09-03T23:46:17.511Z,17.80
2022-09-03T23:48:59.813Z,17.70
2022-09-03T23:51:56.388Z,17.70
2022-09-03T23:54:50.973Z,17.80
2022-09-03T23:57:33.090Z,17.80
